createdAt,value
2022-10-04T00:01:22.141Z,4.03
2022-10-04T00:03:49.788Z,4.01
2022-10-04T00:06:20.125Z,4.02
2022-10-04T00:08:49.507Z,4.02
2022-10-04T00:11:18.006Z,4.02
2022-10-04T00:13:51.902Z,4.03
2022-10-04T00:16:19.767Z,4.05
2022-10-04T00:18:46.280Z,4.05
2022-10-04T00:21:12.904Z,4.03
2022-10-04T00:23:39.356Z,4.05
2022-10-04T00:26:24.025Z,4.08
2022-10-04T00:28:50.889Z,4.14
2022-10-04T00:31:18.671Z,4.22
2022-10-04T00:33:48.975Z,4.26
2022-10-04T00:36:24.695Z,4.29
2022-10-04T00:39:09.500Z,4.28
2022-10-04T00:41:42.067Z,4.19
2022-10-04T00:44:10.428Z,4.12
2022-10-04T00:46:36.963Z,4.05
2022-10-04T00:49:03.771Z,4.07
2022-10-04T00:51:48.859Z,4.10
2022-10-04T00:54:23.164Z,4.10
2022-10-04T00:56:53.896Z,4.14
2022-10-04T00:59:20.331Z,4.13
2022-10-04T01:01:48.399Z,4.08
2022-10-04T01:04:23.322Z,3.95
2022-10-04T01:06:49.720Z,3.81
2022-10-04T01:09:16.817Z,3.73
2022-10-04T01:11:44.924Z,3.72
2022-10-04T01:14:15.062Z,3.78
2022-10-04T01:16:41.472Z,3.87
2022-10-04T01:19:23.777Z,3.95
2022-10-04T01:22:05.325Z,4.06
2022-10-04T01:24:38.292Z,4.16
2022-10-04T01:27:05.395Z,4.22
2022-10-04T01:29:31.851Z,4.30
2022-10-04T01:31:59.081Z,4.35
2022-10-04T01:34:29.000Z,4.42
2022-10-04T01:36:56.051Z,4.49
2022-10-04T01:39:22.935Z,4.44
2022-10-04T01:41:58.665Z,4.42
2022-10-04T01:44:28.295Z,4.44
2022-10-04T01:46:55.550Z,4.42
2022-10-04T01:49:23.244Z,4.37
2022-10-04T01:51:50.008Z,4.34
2022-10-04T01:54:17.770Z,4.33
2022-10-04T01:56:56.083Z,4.23
2022-10-04T01:59:27.652Z,4.22
2022-10-04T02:01:56.056Z,4.27
2022-10-04T02:04:23.906Z,4.19
2022-10-04T02:06:53.074Z,4.21
2022-10-04T02:09:20.180Z,4.24
2022-10-04T02:11:47.489Z,4.29
2022-10-04T02:14:15.925Z,4.29
2022-10-04T02:16:43.301Z,4.19
2022-10-04T02:19:10.046Z,4.17
2022-10-04T02:21:36.638Z,4.03
2022-10-04T02:24:03.091Z,4.04
2022-10-04T02:26:29.532Z,4.02
2022-10-04T02:28:55.954Z,4.04
2022-10-04T02:31:41.573Z,4.05
2022-10-04T02:34:08.299Z,4.10
2022-10-04T02:36:34.893Z,4.16
2022-10-04T02:39:15.514Z,4.24
2022-10-04T02:41:43.850Z,4.35
2022-10-04T02:44:13.557Z,4.38
2022-10-04T02:47:15.597Z,4.43
2022-10-04T02:49:44.856Z,4.53
2022-10-04T02:52:12.849Z,4.56
2022-10-04T02:54:45.264Z,4.59
2022-10-04T02:57:14.207Z,4.62
2022-10-04T02:59:40.578Z,4.71
2022-10-04T03:02:28.681Z,4.73
2022-10-04T03:04:56.847Z,4.68
2022-10-04T03:07:23.381Z,4.65
2022-10-04T03:09:49.847Z,4.56
2022-10-04T03:12:16.386Z,4.56
2022-10-04T03:14:42.908Z,4.54
2022-10-04T03:17:09.443Z,4.62
2022-10-04T03:19:35.896Z,4.63
2022-10-04T03:22:03.242Z,4.64
2022-10-04T03:24:33.852Z,4.68
2022-10-04T03:27:00.743Z,4.70
2022-10-04T03:29:28.331Z,4.67
2022-10-04T03:31:58.213Z,4.64
2022-10-04T03:34:24.670Z,4.68
2022-10-04T03:36:51.521Z,4.67
2022-10-04T03:39:33.558Z,4.66
2022-10-04T03:42:04.491Z,4.75
2022-10-04T03:44:31.936Z,4.87
2022-10-04T03:46:58.744Z,4.94
2022-10-04T03:49:32.518Z,4.92
2022-10-04T03:51:59.078Z,4.89
2022-10-04T03:54:27.925Z,4.92
2022-10-04T03:56:54.898Z,4.90
2022-10-04T03:59:21.419Z,4.84
2022-10-04T04:01:50.971Z,4.82
2022-10-04T04:04:43.993Z,4.79
2022-10-04T04:07:20.632Z,4.78
2022-10-04T04:09:50.943Z,4.79
2022-10-04T04:12:18.736Z,4.78
2022-10-04T04:14:45.335Z,4.86
2022-10-04T04:17:27.340Z,4.98
2022-10-04T04:19:54.302Z,5.05
2022-10-04T04:22:21.096Z,5.03
2022-10-04T04:24:47.506Z,5.04
2022-10-04T04:27:14.446Z,5.05
2022-10-04T04:29:53.093Z,5.03
2022-10-04T04:32:24.252Z,5.05
2022-10-04T04:34:52.775Z,5.11
2022-10-04T04:37:19.319Z,5.06
2022-10-04T04:39:49.264Z,5.08
2022-10-04T04:42:25.215Z,5.06
2022-10-04T04:44:55.855Z,5.14
2022-10-04T04:47:22.211Z,5.14
2022-10-04T04:49:48.630Z,4.96
2022-10-04T04:52:16.827Z,4.89
2022-10-04T04:54:43.932Z,4.77
2022-10-04T04:57:10.618Z,4.70
2022-10-04T04:59:37.205Z,4.63
2022-10-04T05:02:03.749Z,4.57
2022-10-04T05:04:31.466Z,4.56
2022-10-04T05:07:05.366Z,4.54
2022-10-04T05:09:35.566Z,4.52
2022-10-04T05:12:11.381Z,4.50
2022-10-04T05:14:38.252Z,4.43
2022-10-04T05:17:04.661Z,4.38
2022-10-04T05:19:31.817Z,4.35
2022-10-04T05:21:59.276Z,4.32
2022-10-04T05:24:25.663Z,4.28
2022-10-04T05:26:56.560Z,4.23
2022-10-04T05:29:26.949Z,4.18
2022-10-04T05:31:56.052Z,4.13
2022-10-04T05:34:27.196Z,4.12
2022-10-04T05:37:12.338Z,4.08
2022-10-04T05:40:02.021Z,4.10
2022-10-04T05:42:40.361Z,4.02
2022-10-04T05:45:20.780Z,3.94
2022-10-04T05:47:53.971Z,4.00
2022-10-04T05:50:30.210Z,3.97
2022-10-04T05:53:07.655Z,3.97
2022-10-04T05:55:37.646Z,4.01
2022-10-04T05:58:10.344Z,4.02
2022-10-04T06:00:45.938Z,4.09
2022-10-04T06:03:15.317Z,4.17
2022-10-04T06:05:49.263Z,4.39
2022-10-04T06:08:18.719Z,4.52
2022-10-04T06:11:06.739Z,4.61
2022-10-04T06:13:52.636Z,4.69
2022-10-04T06:16:25.125Z,4.82
2022-10-04T06:19:10.379Z,4.83
2022-10-04T06:21:55.587Z,5.01
2022-10-04T06:24:27.053Z,5.15
2022-10-04T06:26:59.395Z,5.20
2022-10-04T06:29:27.335Z,5.14
2022-10-04T06:31:57.347Z,5.13
2022-10-04T06:34:29.867Z,5.16
2022-10-04T06:37:15.696Z,5.19
2022-10-04T06:39:52.685Z,5.31
2022-10-04T06:42:39.193Z,5.48
2022-10-04T06:45:18.089Z,5.71
2022-10-04T06:47:44.453Z,5.93
2022-10-04T06:50:17.256Z,6.09
2022-10-04T06:52:47.301Z,6.22
2022-10-04T06:55:26.100Z,6.37
2022-10-04T06:57:58.392Z,6.50
2022-10-04T07:00:26.225Z,6.60
2022-10-04T07:02:53.940Z,6.67
2022-10-04T07:05:34.316Z,6.70
2022-10-04T07:08:10.815Z,6.78
2022-10-04T07:10:45.509Z,6.95
2022-10-04T07:13:14.119Z,7.20
2022-10-04T07:15:55.927Z,7.45
2022-10-04T07:18:27.069Z,7.73
2022-10-04T07:21:04.573Z,7.86
2022-10-04T07:23:36.368Z,8.00
2022-10-04T07:26:04.466Z,8.13
2022-10-04T07:28:50.525Z,8.23
2022-10-04T07:31:16.987Z,8.42
2022-10-04T07:33:44.534Z,8.54
2022-10-04T07:36:11.892Z,8.68
2022-10-04T07:38:39.486Z,8.86
2022-10-04T07:41:08.819Z,8.95
2022-10-04T07:43:38.515Z,9.03
2022-10-04T07:46:06.515Z,9.15
2022-10-04T07:48:33.030Z,9.14
2022-10-04T07:51:09.900Z,9.15
2022-10-04T07:53:56.588Z,9.31
2022-10-04T07:56:22.993Z,9.61
2022-10-04T07:59:00.781Z,9.81
2022-10-04T08:01:39.626Z,10.00
2022-10-04T08:04:06.089Z,10.34
2022-10-04T08:06:36.586Z,10.57
2022-10-04T08:09:05.994Z,10.92
2022-10-04T08:11:44.887Z,11.08
2022-10-04T08:14:24.956Z,11.09
2022-10-04T08:17:17.806Z,11.53
2022-10-04T08:20:03.086Z,11.73
2022-10-04T08:22:52.681Z,11.77
2022-10-04T08:25:29.604Z,11.67
2022-10-04T08:28:34.933Z,11.59
2022-10-04T08:31:21.692Z,11.91
2022-10-04T08:33:59.584Z,11.75
2022-10-04T08:36:45.365Z,11.85
2022-10-04T08:39:30.929Z,11.80
2022-10-04T08:41:57.318Z,11.83
2022-10-04T08:44:43.123Z,12.15
2022-10-04T08:47:24.538Z,12.55
2022-10-04T08:50:03.960Z,13.02
2022-10-04T08:52:49.443Z,13.52
2022-10-04T08:55:35.207Z,13.54
2022-10-04T08:58:23.940Z,13.37
2022-10-04T09:00:56.886Z,12.88
2022-10-04T09:03:42.088Z,12.88
2022-10-04T09:06:27.419Z,12.85
2022-10-04T09:09:12.589Z,13.37
2022-10-04T09:12:05.407Z,14.10
2022-10-04T09:14:40.873Z,14.07
2022-10-04T09:17:44.572Z,14.72
2022-10-04T09:20:37.226Z,15.71
2022-10-04T09:23:05.464Z,16.72
2022-10-04T09:25:32.750Z,17.12
2022-10-04T09:28:02.271Z,17.70
2022-10-04T09:30:34.680Z,17.83
2022-10-04T09:33:21.338Z,17.42
2022-10-04T09:35:47.741Z,17.98
2022-10-04T09:38:20.347Z,18.72
2022-10-04T09:41:07.079Z,19.23
2022-10-04T09:43:52.060Z,20.49
2022-10-04T09:46:55.694Z,20.04
2022-10-04T09:49:27.575Z,20.02
2022-10-04T09:52:14.130Z,20.61
2022-10-04T09:54:58.739Z,19.91
2022-10-04T09:57:45.782Z,19.86
2022-10-04T10:00:26.425Z,20.40
2022-10-04T10:03:15.778Z,20.35
2022-10-04T10:05:49.734Z,21.51
2022-10-04T10:08:26.129Z,21.26
2022-10-04T10:11:13.291Z,21.56
2022-10-04T10:13:58.247Z,21.43
2022-10-04T10:16:44.024Z,21.26
2022-10-04T10:19:28.334Z,21.83
2022-10-04T10:22:13.752Z,22.36
2022-10-04T10:24:47.812Z,21.91
2022-10-04T10:27:32.985Z,21.13
2022-10-04T10:30:18.517Z,21.56
2022-10-04T10:32:44.892Z,21.92
2022-10-04T10:35:16.576Z,23.02
2022-10-04T10:38:04.646Z,23.82
2022-10-04T10:40:41.710Z,24.80
2022-10-04T10:43:18.371Z,25.72
2022-10-04T10:45:47.553Z,26.13
2022-10-04T10:48:15.122Z,25.93
2022-10-04T10:50:59.847Z,24.93
2022-10-04T10:53:46.150Z,25.10
2022-10-04T10:56:31.461Z,25.10
2022-10-04T10:59:05.491Z,26.20
2022-10-04T11:01:38.655Z,25.79
2022-10-04T11:04:28.259Z,26.31
2022-10-04T11:06:54.639Z,27.72
2022-10-04T11:09:40.838Z,27.12
2022-10-04T11:12:18.312Z,27.72
2022-10-04T11:15:03.767Z,28.05
2022-10-04T11:17:39.887Z,27.26
2022-10-04T11:20:06.301Z,26.38
2022-10-04T11:22:51.576Z,25.34
2022-10-04T11:25:25.351Z,26.26
2022-10-04T11:27:58.973Z,27.67
2022-10-04T11:30:26.511Z,29.18
2022-10-04T11:33:11.874Z,29.65
2022-10-04T11:35:57.965Z,29.40
2022-10-04T11:38:25.188Z,29.72
2022-10-04T11:41:07.453Z,28.76
2022-10-04T11:43:50.259Z,28.86
2022-10-04T11:46:33.766Z,29.78
2022-10-04T11:49:15.696Z,30.60
2022-10-04T11:51:51.371Z,30.68
2022-10-04T11:54:30.241Z,31.31
2022-10-04T11:57:11.031Z,31.47
2022-10-04T11:59:38.904Z,33.20
2022-10-04T12:02:24.221Z,31.61
2022-10-04T12:05:12.093Z,33.52
2022-10-04T12:07:42.035Z,33.97
2022-10-04T12:10:17.696Z,34.93
2022-10-04T12:13:04.706Z,33.01
2022-10-04T12:15:32.767Z,30.73
2022-10-04T12:18:08.142Z,30.35
2022-10-04T12:20:53.272Z,28.51
2022-10-04T12:23:34.972Z,28.39
2022-10-04T12:26:17.098Z,29.33
2022-10-04T12:29:05.907Z,30.69
2022-10-04T12:31:33.492Z,31.08
2022-10-04T12:34:15.542Z,32.28
2022-10-04T12:36:57.431Z,34.11
2022-10-04T12:39:47.265Z,33.37
2022-10-04T12:42:32.872Z,34.65
2022-10-04T12:45:03.788Z,34.30
2022-10-04T12:47:30.428Z,36.17
2022-10-04T12:49:57.036Z,37.30
2022-10-04T12:52:25.389Z,38.83
2022-10-04T12:55:00.886Z,38.49
2022-10-04T12:57:40.526Z,36.65
2022-10-04T13:00:16.241Z,36.38
2022-10-04T13:03:02.088Z,33.45
2022-10-04T13:05:42.395Z,29.51
2022-10-04T13:08:08.959Z,27.66
2022-10-04T13:10:44.672Z,25.15
2022-10-04T13:13:30.023Z,24.36
2022-10-04T13:18:49.315Z,23.15
2022-10-04T13:21:39.029Z,23.47
2022-10-04T13:24:15.162Z,23.56
2022-10-04T13:26:43.016Z,23.52
2022-10-04T13:29:19.763Z,23.45
2022-10-04T13:31:46.466Z,22.64
2022-10-04T13:34:20.326Z,21.63
2022-10-04T13:37:09.584Z,21.07
2022-10-04T13:39:41.292Z,22.84
2022-10-04T13:42:12.242Z,25.58
2022-10-04T13:45:00.876Z,25.72
2022-10-04T13:47:35.046Z,23.61
2022-10-04T13:50:04.631Z,24.60
2022-10-04T13:53:01.987Z,25.04
2022-10-04T13:55:46.923Z,24.22
2022-10-04T13:58:16.075Z,23.33
2022-10-04T14:00:58.306Z,22.57
2022-10-04T14:03:43.963Z,20.89
2022-10-04T14:06:33.715Z,19.44
2022-10-04T14:09:03.895Z,18.78
2022-10-04T14:11:42.904Z,18.63
2022-10-04T14:14:17.433Z,18.67
2022-10-04T14:16:47.004Z,18.94
2022-10-04T14:19:32.164Z,19.61
2022-10-04T14:22:01.672Z,19.58
2022-10-04T14:24:46.963Z,19.33
2022-10-04T14:27:26.967Z,18.62
2022-10-04T14:29:53.365Z,18.44
2022-10-04T14:32:20.454Z,18.33
2022-10-04T14:34:53.816Z,17.98
2022-10-04T14:37:43.647Z,17.77
2022-10-04T14:40:10.067Z,17.46
2022-10-04T14:42:36.493Z,17.27
2022-10-04T14:45:04.392Z,17.21
2022-10-04T14:47:49.742Z,17.16
2022-10-04T14:50:19.510Z,17.12
2022-10-04T14:53:01.275Z,17.02
2022-10-04T14:55:39.903Z,17.06
2022-10-04T14:58:21.569Z,17.02
2022-10-04T15:01:07.050Z,16.97
2022-10-04T15:03:50.571Z,16.88
2022-10-04T15:06:22.073Z,16.84
2022-10-04T15:09:01.107Z,16.83
2022-10-04T15:11:41.274Z,16.77
2022-10-04T15:14:27.964Z,16.90
2022-10-04T15:16:55.519Z,17.25
2022-10-04T15:19:21.918Z,17.31
2022-10-04T15:22:03.614Z,17.07
2022-10-04T15:24:41.742Z,17.35
2022-10-04T15:27:09.691Z,17.30
2022-10-04T15:30:05.781Z,16.91
2022-10-04T15:32:35.575Z,16.46
2022-10-04T15:35:12.025Z,16.20
2022-10-04T15:37:50.656Z,16.09
2022-10-04T15:40:23.208Z,15.92
2022-10-04T15:43:01.560Z,15.82
2022-10-04T15:45:34.094Z,15.79
2022-10-04T15:48:10.451Z,15.68
2022-10-04T15:50:39.655Z,15.63
2022-10-04T15:53:19.766Z,15.57
2022-10-04T15:55:58.890Z,15.52
2022-10-04T15:58:25.591Z,15.43
2022-10-04T16:01:01.788Z,15.40
2022-10-04T16:03:34.542Z,15.31
2022-10-04T16:06:05.574Z,15.21
2022-10-04T16:08:35.068Z,15.19
2022-10-04T16:11:08.084Z,15.15
2022-10-04T16:13:56.804Z,15.04
2022-10-04T16:16:29.308Z,14.97
2022-10-04T16:18:55.765Z,14.90
2022-10-04T16:21:48.441Z,14.77
2022-10-04T16:24:17.920Z,14.62
2022-10-04T16:26:44.677Z,14.54
2022-10-04T16:29:34.563Z,14.45
2022-10-04T16:32:05.179Z,14.34
2022-10-04T16:34:45.414Z,14.31
2022-10-04T16:37:20.707Z,14.24
2022-10-04T16:39:59.203Z,14.12
2022-10-04T16:42:34.738Z,14.05
2022-10-04T16:45:07.327Z,14.05
2022-10-04T16:47:39.568Z,14.04
2022-10-04T16:50:09.505Z,13.98
2022-10-04T16:52:38.532Z,13.94
2022-10-04T16:55:22.541Z,13.86
2022-10-04T16:58:08.938Z,13.73
2022-10-04T17:00:36.849Z,13.68
2022-10-04T17:03:24.089Z,13.69
2022-10-04T17:05:56.726Z,13.58
2022-10-04T17:08:24.108Z,13.57
2022-10-04T17:11:14.549Z,13.38
2022-10-04T17:13:50.825Z,13.20
2022-10-04T17:16:23.644Z,13.04
2022-10-04T17:19:05.535Z,13.04
2022-10-04T17:21:31.981Z,12.88
2022-10-04T17:24:02.517Z,12.73
2022-10-04T17:26:28.951Z,12.64
2022-10-04T17:28:56.631Z,12.61
2022-10-04T17:31:29.267Z,12.48
2022-10-04T17:33:58.784Z,12.32
2022-10-04T17:36:26.031Z,12.19
2022-10-04T17:39:01.778Z,12.06
2022-10-04T17:41:40.118Z,11.93
2022-10-04T17:44:13.363Z,11.79
2022-10-04T17:46:52.194Z,11.69
2022-10-04T17:50:03.918Z,11.70
2022-10-04T17:52:53.041Z,11.57
2022-10-04T17:55:24.493Z,11.50
2022-10-04T17:57:52.704Z,11.66
2022-10-04T18:00:23.854Z,11.74
2022-10-04T18:03:09.788Z,11.86
2022-10-04T18:05:42.406Z,11.57
2022-10-04T18:08:27.607Z,11.55
2022-10-04T18:11:20.521Z,11.73
2022-10-04T18:13:48.534Z,11.86
2022-10-04T18:16:25.955Z,11.86
2022-10-04T18:18:52.459Z,11.93
2022-10-04T18:21:20.116Z,11.82
2022-10-04T18:24:10.100Z,11.81
2022-10-04T18:26:37.108Z,11.95
2022-10-04T18:29:07.324Z,12.25
2022-10-04T18:31:37.954Z,12.19
2022-10-04T18:34:10.582Z,12.14
2022-10-04T18:36:55.976Z,12.13
2022-10-04T18:39:22.962Z,12.43
2022-10-04T18:42:23.525Z,12.50
2022-10-04T18:44:59.988Z,12.56
2022-10-04T18:47:33.663Z,12.62
2022-10-04T18:50:02.803Z,12.46
2022-10-04T18:52:58.844Z,12.30
2022-10-04T18:55:28.297Z,12.21
2022-10-04T18:58:20.035Z,12.10
2022-10-04T19:01:07.213Z,11.93
2022-10-04T19:03:36.636Z,11.89
2022-10-04T19:06:06.201Z,11.76
2022-10-04T19:09:08.041Z,11.63
2022-10-04T19:11:37.090Z,11.51
2022-10-04T19:14:08.144Z,11.37
2022-10-04T19:16:50.518Z,11.17
2022-10-04T19:19:27.558Z,11.16
2022-10-04T19:21:54.950Z,11.20
2022-10-04T19:24:40.308Z,11.21
2022-10-04T19:27:26.531Z,11.21
2022-10-04T19:30:11.727Z,11.27
2022-10-04T19:32:47.401Z,11.24
2022-10-04T19:35:20.056Z,11.20
2022-10-04T19:38:05.376Z,11.09
2022-10-04T19:40:52.665Z,11.12
2022-10-04T19:43:37.275Z,11.14
2022-10-04T19:46:03.700Z,11.22
2022-10-04T19:48:33.790Z,11.24
2022-10-04T19:51:04.997Z,11.22
2022-10-04T19:53:35.172Z,11.16
2022-10-04T19:56:01.628Z,11.21
2022-10-04T19:58:45.007Z,11.19
2022-10-04T20:01:17.692Z,11.21
2022-10-04T20:03:44.212Z,11.33
2022-10-04T20:06:10.780Z,11.33
2022-10-04T20:08:49.471Z,11.29
2022-10-04T20:11:23.328Z,11.22
2022-10-04T20:14:21.500Z,11.03
2022-10-04T20:16:48.962Z,10.76
2022-10-04T20:19:18.177Z,10.65
2022-10-04T20:21:44.793Z,10.53
2022-10-04T20:24:30.374Z,10.60
2022-10-04T20:27:01.274Z,10.67
2022-10-04T20:29:36.829Z,10.63
2022-10-04T20:32:22.657Z,10.64
2022-10-04T20:34:49.375Z,10.59
2022-10-04T20:37:21.861Z,10.58
2022-10-04T20:39:49.128Z,10.67
2022-10-04T20:42:29.813Z,10.71
2022-10-04T20:44:56.327Z,10.77
2022-10-04T20:47:32.076Z,10.74
2022-10-04T20:50:01.773Z,10.65
2022-10-04T20:52:31.766Z,10.53
2022-10-04T20:55:00.185Z,10.51
2022-10-04T20:57:26.588Z,10.37
2022-10-04T20:59:56.457Z,10.24
2022-10-04T21:02:23.985Z,10.12
2022-10-04T21:04:53.335Z,10.26
2022-10-04T21:07:21.164Z,10.36
2022-10-04T21:09:47.862Z,10.32
2022-10-04T21:12:26.479Z,10.41
2022-10-04T21:15:03.273Z,10.47
2022-10-04T21:17:29.686Z,10.52
2022-10-04T21:19:56.262Z,10.54
2022-10-04T21:22:25.896Z,10.54
2022-10-04T21:24:56.792Z,10.52
2022-10-04T21:27:29.253Z,10.49
2022-10-04T21:29:56.530Z,10.43
2022-10-04T21:32:23.506Z,10.31
2022-10-04T21:34:54.374Z,10.21
2022-10-04T21:37:21.260Z,10.12
2022-10-04T21:39:47.801Z,10.09
2022-10-04T21:42:14.229Z,10.17
2022-10-04T21:44:40.677Z,10.35
2022-10-04T21:47:07.109Z,10.50
2022-10-04T21:49:33.486Z,10.34
2022-10-04T21:51:59.891Z,10.22
2022-10-04T21:54:26.386Z,10.11
2022-10-04T21:56:54.002Z,10.01
2022-10-04T21:59:20.775Z,9.98
2022-10-04T22:01:47.366Z,9.97
2022-10-04T22:04:13.773Z,9.86
2022-10-04T22:06:40.516Z,9.83
2022-10-04T22:09:07.108Z,9.77
2022-10-04T22:11:33.531Z,9.69
2022-10-04T22:14:00.195Z,9.65
2022-10-04T22:16:26.742Z,9.62
2022-10-04T22:18:53.201Z,9.51
2022-10-04T22:21:19.637Z,9.43
2022-10-04T22:23:46.059Z,9.37
2022-10-04T22:26:13.387Z,9.33
2022-10-04T22:28:53.154Z,9.33
2022-10-04T22:31:20.547Z,9.29
2022-10-04T22:33:47.749Z,9.25
2022-10-04T22:36:15.528Z,9.22
2022-10-04T22:38:42.565Z,9.28
2022-10-04T22:41:09.845Z,9.39
2022-10-04T22:43:36.370Z,9.75
2022-10-04T22:46:02.891Z,9.79
2022-10-04T22:48:29.329Z,9.81
2022-10-04T22:50:55.816Z,9.79
2022-10-04T22:53:22.690Z,9.84
2022-10-04T22:55:49.637Z,9.90
2022-10-04T22:58:16.272Z,10.01
2022-10-04T23:00:43.346Z,10.03
2022-10-04T23:03:31.399Z,10.06
2022-10-04T23:05:58.410Z,9.99
2022-10-04T23:08:25.072Z,9.89
2022-10-04T23:10:55.600Z,9.94
2022-10-04T23:13:25.916Z,9.94
2022-10-04T23:15:52.572Z,9.96
2022-10-04T23:18:19.226Z,9.98
2022-10-04T23:20:49.017Z,9.89
2022-10-04T23:23:21.217Z,9.84
2022-10-04T23:25:48.027Z,9.84
2022-10-04T23:28:15.475Z,9.82
2022-10-04T23:30:42.246Z,9.83
2022-10-04T23:33:14.585Z,9.73
2022-10-04T23:35:41.194Z,9.64
2022-10-04T23:38:09.463Z,9.67
2022-10-04T23:40:35.827Z,9.72
2022-10-04T23:43:04.496Z,9.71
2022-10-04T23:45:30.962Z,9.76
2022-10-04T23:48:01.656Z,9.85
2022-10-04T23:50:34.661Z,9.85
2022-10-04T23:53:06.332Z,9.81
2022-10-04T23:55:34.406Z,9.89
2022-10-04T23:58:01.028Z,9.93
